createdAt,value
2022-10-03T00:01:09.597Z,102028.13
2022-10-03T00:03:51.735Z,102033.97
2022-10-03T00:06:43.545Z,102040.56
2022-10-03T00:09:30.914Z,102036.69
2022-10-03T00:12:18.786Z,102054.16
2022-10-03T00:14:56.654Z,102054.91
2022-10-03T00:17:39.538Z,102058.03
2022-10-03T00:20:15.455Z,102056.53
2022-10-03T00:22:53.264Z,102061.13
2022-10-03T00:25:25.486Z,102060.75
2022-10-03T00:28:00.966Z,102064.25
2022-10-03T00:30:33.309Z,102064.66
2022-10-03T00:33:18.796Z,102071.63
2022-10-03T00:36:18.838Z,102071.28
2022-10-03T00:39:13.675Z,102083.66
2022-10-03T00:42:03.064Z,102075.94
2022-10-03T00:44:51.850Z,102079.06
2022-10-03T00:47:40.399Z,102082.13
2022-10-03T00:50:24.842Z,102084.84
2022-10-03T00:53:24.626Z,102081.03
2022-10-03T00:56:10.248Z,102088.75
2022-10-03T00:58:55.425Z,102091.47
2022-10-03T01:01:28.028Z,102097.31
2022-10-03T01:04:10.896Z,102096.91
2022-10-03T01:06:52.790Z,102093.81
2022-10-03T01:09:25.134Z,102098.06
2022-10-03T01:12:00.214Z,102092.22
2022-10-03T01:14:43.712Z,102095.34
2022-10-03T01:17:49.421Z,102106.22
2022-10-03T01:20:27.364Z,102101.97
2022-10-03T01:23:15.157Z,102099.25
2022-10-03T01:25:57.470Z,102099.69
2022-10-03T01:29:01.644Z,102104.34
2022-10-03T01:32:03.988Z,102107.06
2022-10-03T01:34:56.697Z,102102.38
2022-10-03T01:37:33.574Z,102107.81
2022-10-03T01:40:26.320Z,102110.94
2022-10-03T01:43:18.989Z,102108.16
2022-10-03T01:46:12.519Z,102114.03
2022-10-03T01:48:55.232Z,102102.81
2022-10-03T01:51:42.293Z,102104.75
2022-10-03T01:54:22.038Z,102117.13
2022-10-03T01:57:12.644Z,102111.72
2022-10-03T01:59:57.722Z,102117.50
2022-10-03T02:02:36.791Z,102120.63
2022-10-03T02:05:03.587Z,102126.06
2022-10-03T02:07:46.296Z,102121.47
2022-10-03T02:10:25.102Z,102132.66
2022-10-03T02:13:19.241Z,102128.00
2022-10-03T02:16:10.218Z,102142.00
2022-10-03T02:18:40.850Z,102143.53
2022-10-03T02:21:15.009Z,102145.47
2022-10-03T02:23:45.866Z,102154.38
2022-10-03T02:26:42.786Z,102159.03
2022-10-03T02:29:37.874Z,102155.56
2022-10-03T02:32:34.462Z,102154.78
2022-10-03T02:35:26.287Z,102167.94
2022-10-03T02:38:23.704Z,102165.31
2022-10-03T02:41:04.270Z,102168.78
2022-10-03T02:43:45.648Z,102176.94
2022-10-03T02:46:37.131Z,102180.44
2022-10-03T02:49:34.404Z,102185.06
2022-10-03T02:52:19.326Z,102189.31
2022-10-03T02:55:05.390Z,102187.00
2022-10-03T02:57:37.631Z,102184.72
2022-10-03T03:00:13.994Z,102188.19
2022-10-03T03:03:01.938Z,102189.31
2022-10-03T03:05:40.475Z,102191.28
2022-10-03T03:08:25.704Z,102196.72
2022-10-03T03:11:26.410Z,102199.81
2022-10-03T03:14:12.349Z,102198.28
2022-10-03T03:16:57.450Z,102198.28
2022-10-03T03:19:41.913Z,102200.25
2022-10-03T03:22:34.960Z,102198.28
2022-10-03T03:25:13.774Z,102202.19
2022-10-03T03:27:47.761Z,102204.91
2022-10-03T03:30:19.405Z,102202.19
2022-10-03T03:33:21.931Z,102205.31
2022-10-03T03:35:57.537Z,102195.56
2022-10-03T03:38:24.026Z,102211.84
2022-10-03T03:41:13.143Z,102213.03
2022-10-03T03:43:42.310Z,102204.16
2022-10-03T03:46:20.591Z,102207.59
2022-10-03T03:49:02.098Z,102209.97
2022-10-03T03:51:42.297Z,102205.31
2022-10-03T03:54:54.497Z,102205.41
2022-10-03T03:57:36.567Z,102212.69
2022-10-03T04:00:16.315Z,102218.47
2022-10-03T04:02:58.097Z,102213.47
2022-10-03T04:05:30.635Z,102221.19
2022-10-03T04:08:22.036Z,102220.06
2022-10-03T04:11:18.335Z,102222.41
2022-10-03T04:13:47.837Z,102228.97
2022-10-03T04:16:43.021Z,102225.91
2022-10-03T04:19:30.218Z,102223.53
2022-10-03T04:22:14.950Z,102218.88
2022-10-03T04:25:20.669Z,102224.72
2022-10-03T04:28:34.403Z,102223.63
2022-10-03T04:31:10.169Z,102223.63
2022-10-03T04:33:46.533Z,102227.13
2022-10-03T04:36:12.979Z,102226.34
2022-10-03T04:39:01.213Z,102220.53
2022-10-03T04:41:49.840Z,102229.44
2022-10-03T04:44:34.774Z,102234.53
2022-10-03T04:47:08.948Z,102234.09
2022-10-03T04:49:56.162Z,102238.78
2022-10-03T04:52:39.323Z,102234.53
2022-10-03T04:55:11.723Z,102248.84
2022-10-03T04:58:10.956Z,102243.00
2022-10-03T05:00:50.337Z,102240.31
2022-10-03T05:03:28.761Z,102246.91
2022-10-03T05:06:00.765Z,102256.25
2022-10-03T05:08:31.433Z,102256.25
2022-10-03T05:11:29.633Z,102256.25
2022-10-03T05:14:11.326Z,102260.91
2022-10-03T05:16:57.502Z,102262.06
2022-10-03T05:19:42.502Z,102265.13
2022-10-03T05:22:20.669Z,102263.63
2022-10-03T05:24:52.106Z,102267.84
2022-10-03T05:27:36.853Z,102268.63
2022-10-03T05:30:09.573Z,102272.53
2022-10-03T05:32:54.023Z,102276.00
2022-10-03T05:35:38.804Z,102283.41
2022-10-03T05:38:20.426Z,102284.13
2022-10-03T05:40:59.054Z,102290.00
2022-10-03T05:43:42.412Z,102284.19
2022-10-03T05:46:27.272Z,102285.34
2022-10-03T05:49:06.241Z,102293.09
2022-10-03T05:51:46.426Z,102295.03
2022-10-03T05:54:30.879Z,102293.09
2022-10-03T05:57:21.464Z,102297.00
2022-10-03T06:00:20.590Z,102302.00
2022-10-03T06:02:53.925Z,102308.22
2022-10-03T06:05:38.895Z,102311.34
2022-10-03T06:08:40.541Z,102315.25
2022-10-03T06:11:28.298Z,102311.00
2022-10-03T06:14:19.099Z,102319.91
2022-10-03T06:17:13.525Z,102319.91
2022-10-03T06:20:01.785Z,102323.03
2022-10-03T06:22:43.425Z,102319.47
2022-10-03T06:25:49.140Z,102321.84
2022-10-03T06:28:24.341Z,102329.56
2022-10-03T06:31:22.614Z,102324.91
2022-10-03T06:34:18.728Z,102329.16
2022-10-03T06:37:23.437Z,102334.56
2022-10-03T06:40:21.495Z,102340.38
2022-10-03T06:43:00.179Z,102335.34
2022-10-03T06:45:59.512Z,102339.94
2022-10-03T06:48:48.680Z,102332.56
2022-10-03T06:51:32.612Z,102332.97
2022-10-03T06:54:06.134Z,102338.31
2022-10-03T06:56:57.522Z,102336.00
2022-10-03T06:59:23.899Z,102344.53
2022-10-03T07:02:25.070Z,102333.69
2022-10-03T07:05:24.948Z,102348.34
2022-10-03T07:08:23.783Z,102348.28
2022-10-03T07:11:14.851Z,102354.09
2022-10-03T07:13:53.409Z,102352.94
2022-10-03T07:16:47.193Z,102356.78
2022-10-03T07:19:38.215Z,102349.00
2022-10-03T07:22:30.729Z,102350.91
2022-10-03T07:25:11.303Z,102348.19
2022-10-03T07:28:15.247Z,102353.97
2022-10-03T07:31:18.528Z,102354.75
2022-10-03T07:34:09.365Z,102360.94
2022-10-03T07:37:07.609Z,102356.28
2022-10-03T07:39:59.673Z,102364.41
2022-10-03T07:42:49.712Z,102370.25
2022-10-03T07:45:34.464Z,102365.59
2022-10-03T07:48:15.888Z,102366.78
2022-10-03T07:51:01.229Z,102367.53
2022-10-03T07:54:03.131Z,102374.91
2022-10-03T07:56:48.854Z,102376.06
2022-10-03T07:59:38.416Z,102386.56
2022-10-03T08:02:41.884Z,102397.06
2022-10-03T08:05:17.351Z,102395.88
2022-10-03T08:08:21.570Z,102397.78
2022-10-03T08:11:06.619Z,102403.22
2022-10-03T08:13:49.081Z,102399.41
2022-10-03T08:16:46.292Z,102400.19
2022-10-03T08:19:31.519Z,102399.41
2022-10-03T08:22:30.534Z,102395.94
2022-10-03T08:25:17.893Z,102400.94
2022-10-03T08:28:03.255Z,102396.69
2022-10-03T08:30:49.153Z,102396.28
2022-10-03T08:33:34.627Z,102397.06
2022-10-03T08:36:07.145Z,102401.72
2022-10-03T08:39:09.982Z,102400.13
2022-10-03T08:42:01.022Z,102391.53
2022-10-03T08:44:45.281Z,102397.66
2022-10-03T08:47:33.974Z,102397.19
2022-10-03T08:50:22.030Z,102404.44
2022-10-03T08:52:51.350Z,102407.47
2022-10-03T08:55:26.989Z,102398.06
2022-10-03T08:58:18.060Z,102398.00
2022-10-03T09:01:21.036Z,102397.19
2022-10-03T09:04:11.997Z,102406.41
2022-10-03T09:07:17.087Z,102396.25
2022-10-03T09:10:10.005Z,102395.75
2022-10-03T09:12:54.599Z,102403.88
2022-10-03T09:16:02.567Z,102409.25
2022-10-03T09:18:47.128Z,102411.09
2022-10-03T09:22:01.544Z,102399.03
2022-10-03T09:24:55.517Z,102400.94
2022-10-03T09:27:28.298Z,102400.53
2022-10-03T09:30:16.243Z,102402.41
2022-10-03T09:33:19.911Z,102396.56
2022-10-03T09:35:55.303Z,102398.00
2022-10-03T09:38:43.531Z,102398.38
2022-10-03T09:41:40.938Z,102389.34
2022-10-03T09:44:13.494Z,102387.78
2022-10-03T09:47:20.088Z,102400.56
2022-10-03T09:50:01.408Z,102402.00
2022-10-03T09:52:53.098Z,102401.16
2022-10-03T09:56:09.088Z,102394.47
2022-10-03T10:02:15.346Z,102407.50
2022-10-03T10:04:59.526Z,102405.53
2022-10-03T10:08:04.698Z,102398.09
2022-10-03T10:10:56.350Z,102408.53
2022-10-03T10:14:06.777Z,102414.75
2022-10-03T10:17:09.364Z,102403.53
2022-10-03T10:19:51.781Z,102410.16
2022-10-03T10:22:56.204Z,102393.84
2022-10-03T10:25:37.486Z,102394.25
2022-10-03T10:28:37.597Z,102390.06
2022-10-03T10:31:24.216Z,102399.78
2022-10-03T10:34:05.634Z,102403.69
2022-10-03T10:36:41.543Z,102394.72
2022-10-03T10:39:29.999Z,102407.22
2022-10-03T10:42:12.618Z,102402.13
2022-10-03T10:44:57.417Z,102401.31
2022-10-03T10:47:57.640Z,102398.91
2022-10-03T10:51:05.137Z,102406.66
2022-10-03T10:54:02.243Z,102400.81
2022-10-03T10:56:59.751Z,102398.84
2022-10-03T11:00:05.217Z,102401.56
2022-10-03T11:02:46.693Z,102396.13
2022-10-03T11:05:59.083Z,102406.25
2022-10-03T11:08:52.905Z,102393.41
2022-10-03T11:12:07.685Z,102405.50
2022-10-03T11:15:11.791Z,102394.25
2022-10-03T11:17:44.628Z,102393.91
2022-10-03T11:20:27.792Z,102391.94
2022-10-03T11:23:04.533Z,102389.22
2022-10-03T11:25:41.007Z,102387.69
2022-10-03T11:28:27.306Z,102389.22
2022-10-03T11:31:09.779Z,102382.25
2022-10-03T11:33:51.820Z,102384.97
2022-10-03T11:36:37.282Z,102383.44
2022-10-03T11:39:08.023Z,102381.81
2022-10-03T11:42:05.991Z,102388.47
2022-10-03T11:44:34.347Z,102386.94
2022-10-03T11:47:16.150Z,102389.66
2022-10-03T11:50:22.822Z,102391.25
2022-10-03T11:52:55.031Z,102392.88
2022-10-03T11:55:35.605Z,102397.19
2022-10-03T11:58:35.405Z,102389.44
2022-10-03T12:01:18.230Z,102393.75
2022-10-03T12:03:54.236Z,102385.59
2022-10-03T12:07:10.517Z,102382.88
2022-10-03T12:09:58.661Z,102382.81
2022-10-03T12:12:46.062Z,102381.28
2022-10-03T12:15:19.388Z,102380.53
2022-10-03T12:20:39.504Z,102378.25
2022-10-03T12:23:08.708Z,102375.91
2022-10-03T12:25:41.444Z,102375.16
2022-10-03T12:28:35.234Z,102382.22
2022-10-03T12:31:14.902Z,102375.22
2022-10-03T12:34:03.510Z,102379.13
2022-10-03T12:36:44.494Z,102379.94
2022-10-03T12:39:22.372Z,102379.19
2022-10-03T12:42:07.077Z,102383.84
2022-10-03T12:44:57.009Z,102391.69
2022-10-03T12:47:43.895Z,102382.38
2022-10-03T12:50:38.953Z,102387.50
2022-10-03T12:53:17.657Z,102388.34
2022-10-03T12:55:59.887Z,102380.94
2022-10-03T12:59:02.819Z,102387.56
2022-10-03T13:01:44.610Z,102386.44
2022-10-03T13:04:24.148Z,102378.72
2022-10-03T13:07:05.925Z,102381.44
2022-10-03T13:09:52.642Z,102378.34
2022-10-03T13:12:54.809Z,102383.44
2022-10-03T13:15:44.587Z,102381.50
2022-10-03T13:18:38.298Z,102379.56
2022-10-03T13:21:33.446Z,102386.16
2022-10-03T13:24:07.335Z,102380.31
2022-10-03T13:26:46.040Z,102383.38
2022-10-03T13:29:17.333Z,102387.56
2022-10-03T13:31:57.068Z,102378.66
2022-10-03T13:34:30.741Z,102382.91
2022-10-03T13:37:09.806Z,102384.03
2022-10-03T13:40:00.788Z,102386.38
2022-10-03T13:42:42.047Z,102390.28
2022-10-03T13:45:19.193Z,102387.13
2022-10-03T13:47:55.878Z,102388.69
2022-10-03T13:50:31.351Z,102388.34
2022-10-03T13:53:01.156Z,102383.25
2022-10-03T13:56:10.323Z,102375.50
2022-10-03T13:58:36.908Z,102391.06
2022-10-03T14:01:27.547Z,102375.94
2022-10-03T14:04:21.941Z,102377.53
2022-10-03T14:07:03.660Z,102377.53
2022-10-03T14:09:50.823Z,102370.13
2022-10-03T14:12:55.845Z,102374.75
2022-10-03T14:15:47.532Z,102376.63
2022-10-03T14:18:52.687Z,102378.47
2022-10-03T14:21:36.161Z,102375.38
2022-10-03T14:24:59.970Z,102377.22
2022-10-03T14:27:49.192Z,102379.56
2022-10-03T14:30:21.535Z,102373.34
2022-10-03T14:33:02.549Z,102369.50
2022-10-03T14:35:55.031Z,102376.91
2022-10-03T14:39:03.593Z,102370.25
2022-10-03T14:41:33.058Z,102383.53
2022-10-03T14:44:01.891Z,102376.91
2022-10-03T14:46:34.088Z,102369.50
2022-10-03T14:49:12.447Z,102367.59
2022-10-03T14:51:56.386Z,102370.72
2022-10-03T14:54:30.774Z,102372.22
2022-10-03T14:56:58.952Z,102368.00
2022-10-03T14:59:34.720Z,102369.19
2022-10-03T15:02:29.015Z,102368.41
2022-10-03T15:05:08.092Z,102369.94
2022-10-03T15:07:39.099Z,102360.25
2022-10-03T15:10:20.061Z,102365.69
2022-10-03T15:12:55.551Z,102379.28
2022-10-03T15:15:27.959Z,102368.78
2022-10-03T15:17:57.679Z,102368.06
2022-10-03T15:20:27.033Z,102366.06
2022-10-03T15:22:56.841Z,102375.44
2022-10-03T15:25:27.685Z,102361.50
2022-10-03T15:27:57.268Z,102365.38
2022-10-03T15:30:31.975Z,102363.09
2022-10-03T15:33:08.174Z,102369.72
2022-10-03T15:35:39.170Z,102359.25
2022-10-03T15:38:16.067Z,102363.16
2022-10-03T15:40:51.745Z,102359.69
2022-10-03T15:43:35.767Z,102364.78
2022-10-03T15:46:06.725Z,102358.50
2022-10-03T15:48:34.105Z,102360.88
2022-10-03T15:51:18.713Z,102367.84
2022-10-03T15:53:49.889Z,102356.63
2022-10-03T15:56:24.034Z,102372.91
2022-10-03T15:58:57.081Z,102366.31
2022-10-03T16:01:27.049Z,102358.56
2022-10-03T16:04:13.209Z,102364.78
2022-10-03T16:06:55.102Z,102363.25
2022-10-03T16:09:51.659Z,102356.25
2022-10-03T16:12:53.036Z,102362.88
2022-10-03T16:15:28.488Z,102354.72
2022-10-03T16:17:59.549Z,102352.44
2022-10-03T16:20:29.393Z,102345.03
2022-10-03T16:22:58.638Z,102347.00
2022-10-03T16:25:26.672Z,102340.44
2022-10-03T16:27:55.359Z,102344.69
2022-10-03T16:30:26.313Z,102354.03
2022-10-03T16:33:05.405Z,102347.81
2022-10-03T16:35:40.586Z,102357.91
2022-10-03T16:38:26.291Z,102353.25
2022-10-03T16:41:05.104Z,102348.59
2022-10-03T16:43:33.184Z,102349.00
2022-10-03T16:46:04.125Z,102348.25
2022-10-03T16:48:51.944Z,102349.00
2022-10-03T16:51:34.753Z,102342.84
2022-10-03T16:54:05.001Z,102345.53
2022-10-03T16:56:41.145Z,102344.41
2022-10-03T16:59:14.336Z,102353.72
2022-10-03T17:01:45.430Z,102349.06
2022-10-03T17:04:24.546Z,102356.81
2022-10-03T17:06:54.982Z,102352.97
2022-10-03T17:09:39.626Z,102361.13
2022-10-03T17:12:12.716Z,102356.13
2022-10-03T17:14:42.431Z,102359.63
2022-10-03T17:17:39.386Z,102361.94
2022-10-03T17:20:37.581Z,102354.56
2022-10-03T17:23:10.662Z,102358.84
2022-10-03T17:25:58.974Z,102358.47
2022-10-03T17:28:31.399Z,102363.13
2022-10-03T17:31:04.035Z,102358.13
2022-10-03T17:34:08.843Z,102358.91
2022-10-03T17:36:41.352Z,102358.91
2022-10-03T17:39:20.606Z,102363.19
2022-10-03T17:41:55.510Z,102350.38
2022-10-03T17:44:51.205Z,102370.19
2022-10-03T17:47:33.969Z,102371.34
2022-10-03T17:50:15.642Z,102374.06
2022-10-03T17:52:45.433Z,102371.34
2022-10-03T17:55:29.612Z,102372.22
2022-10-03T17:58:00.226Z,102374.50
2022-10-03T18:00:32.003Z,102374.50
2022-10-03T18:03:08.219Z,102371.78
2022-10-03T18:05:47.089Z,102373.75
2022-10-03T18:08:22.534Z,102382.66
2022-10-03T18:10:52.319Z,102389.28
2022-10-03T18:13:27.702Z,102379.59
2022-10-03T18:16:12.855Z,102391.22
2022-10-03T18:18:57.926Z,102393.94
2022-10-03T18:21:55.164Z,102389.28
2022-10-03T18:24:35.927Z,102390.47
2022-10-03T18:27:33.531Z,102388.88
2022-10-03T18:30:08.012Z,102388.16
2022-10-03T18:32:38.335Z,102383.47
2022-10-03T18:35:15.369Z,102386.19
2022-10-03T18:37:47.324Z,102383.91
2022-10-03T18:40:46.374Z,102383.13
2022-10-03T18:43:32.997Z,102380.41
2022-10-03T18:46:01.503Z,102385.09
2022-10-03T18:48:41.156Z,102384.66
2022-10-03T18:51:26.453Z,102383.13
2022-10-03T18:53:59.720Z,102385.47
2022-10-03T18:56:27.258Z,102382.38
2022-10-03T18:59:03.763Z,102378.88
2022-10-03T19:02:06.875Z,102375.03
2022-10-03T19:04:42.463Z,102376.16
2022-10-03T19:07:22.375Z,102373.44
2022-10-03T19:10:21.785Z,102374.59
2022-10-03T19:13:00.212Z,102384.72
2022-10-03T19:15:50.648Z,102387.44
2022-10-03T19:18:22.858Z,102395.59
2022-10-03T19:20:53.967Z,102385.91
2022-10-03T19:23:31.880Z,102387.44
2022-10-03T19:26:12.688Z,102390.91
2022-10-03T19:28:46.839Z,102388.63
2022-10-03T19:31:42.158Z,102388.63
2022-10-03T19:34:28.535Z,102385.16
2022-10-03T19:36:57.374Z,102380.47
2022-10-03T19:39:27.846Z,102391.75
2022-10-03T19:42:18.865Z,102381.66
2022-10-03T19:44:45.373Z,102384.06
2022-10-03T19:47:22.611Z,102389.47
2022-10-03T19:49:56.327Z,102386.31
2022-10-03T19:52:32.185Z,102391.00
2022-10-03T19:55:12.606Z,102387.91
2022-10-03T19:57:43.439Z,102387.84
2022-10-03T20:00:15.946Z,102392.94
2022-10-03T20:02:44.451Z,102384.78
2022-10-03T20:05:41.618Z,102387.09
2022-10-03T20:08:13.848Z,102391.75
2022-10-03T20:11:06.260Z,102388.28
2022-10-03T20:13:32.966Z,102389.88
2022-10-03T20:16:00.203Z,102394.13
2022-10-03T20:18:33.448Z,102387.50
2022-10-03T20:21:04.149Z,102392.59
2022-10-03T20:23:36.085Z,102394.53
2022-10-03T20:26:12.402Z,102398.00
2022-10-03T20:29:09.006Z,102391.41
2022-10-03T20:31:37.447Z,102386.38
2022-10-03T20:34:12.770Z,102389.88
2022-10-03T20:36:44.088Z,102381.78
2022-10-03T20:39:42.514Z,102385.63
2022-10-03T20:42:30.915Z,102386.38
2022-10-03T20:45:18.152Z,102387.16
2022-10-03T20:47:47.622Z,102391.81
2022-10-03T20:50:28.018Z,102391.47
2022-10-03T20:52:59.000Z,102384.06
2022-10-03T20:55:50.475Z,102390.28
2022-10-03T20:58:38.748Z,102393.75
2022-10-03T21:01:14.510Z,102396.16
2022-10-03T21:03:45.432Z,102394.19
2022-10-03T21:06:18.823Z,102396.91
2022-10-03T21:08:46.629Z,102391.09
2022-10-03T21:11:22.563Z,102391.47
2022-10-03T21:14:10.444Z,102387.22
2022-10-03T21:16:44.816Z,102379.84
2022-10-03T21:19:44.420Z,102379.06
2022-10-03T21:22:16.277Z,102376.34
2022-10-03T21:24:52.368Z,102373.28
2022-10-03T21:27:21.520Z,102365.13
2022-10-03T21:30:02.441Z,102373.72
2022-10-03T21:32:59.898Z,102372.09
2022-10-03T21:35:39.364Z,102370.13
2022-10-03T21:38:24.784Z,102365.13
2022-10-03T21:41:07.307Z,102362.41
2022-10-03T21:43:44.652Z,102367.50
2022-10-03T21:46:17.946Z,102364.34
2022-10-03T21:49:03.051Z,102362.84
2022-10-03T21:51:40.581Z,102369.78
2022-10-03T21:54:19.120Z,102362.06
2022-10-03T21:57:03.789Z,102364.00
2022-10-03T21:59:58.207Z,102360.13
2022-10-03T22:03:05.504Z,102357.78
2022-10-03T22:05:57.087Z,102358.97
2022-10-03T22:08:26.478Z,102363.22
2022-10-03T22:11:06.732Z,102357.03
2022-10-03T22:13:39.291Z,102356.66
2022-10-03T22:16:32.148Z,102356.25
2022-10-03T22:19:13.130Z,102346.16
2022-10-03T22:21:50.622Z,102350.06
2022-10-03T22:24:29.850Z,102352.00
2022-10-03T22:27:01.599Z,102355.09
2022-10-03T22:29:45.474Z,102340.72
2022-10-03T22:32:25.213Z,102343.44
2022-10-03T22:34:51.600Z,102337.63
2022-10-03T22:37:18.093Z,102339.19
2022-10-03T22:39:48.345Z,102341.16
2022-10-03T22:42:16.361Z,102341.91
2022-10-03T22:44:46.664Z,102340.41
2022-10-03T22:47:26.044Z,102343.13
2022-10-03T22:49:59.024Z,102355.50
2022-10-03T22:52:28.524Z,102345.78
2022-10-03T22:54:56.711Z,102346.94
2022-10-03T22:57:25.453Z,102346.94
2022-10-03T23:00:00.848Z,102341.50
2022-10-03T23:02:35.116Z,102341.91
2022-10-03T23:05:14.579Z,102350.81
2022-10-03T23:07:55.186Z,102347.69
2022-10-03T23:10:36.485Z,102350.50
2022-10-03T23:13:10.484Z,102358.22
2022-10-03T23:15:39.645Z,102352.78
2022-10-03T23:18:17.534Z,102360.59
2022-10-03T23:20:58.579Z,102359.41
2022-10-03T23:23:48.142Z,102359.41
2022-10-03T23:26:56.360Z,102348.16
2022-10-03T23:29:23.005Z,102353.53
2022-10-03T23:31:53.284Z,102349.72
2022-10-03T23:34:34.760Z,102352.44
2022-10-03T23:37:20.577Z,102352.00
2022-10-03T23:39:56.064Z,102352.44
2022-10-03T23:42:31.509Z,102345.88
2022-10-03T23:45:00.668Z,102340.03
2022-10-03T23:47:32.630Z,102342.75
2022-10-03T23:50:02.390Z,102345.47
2022-10-03T23:52:36.143Z,102335.34
2022-10-03T23:55:05.086Z,102333.81
2022-10-03T23:57:37.280Z,102330.34
